Portada
METAR-TAF:

METAR-TAF

Aeropuertos :

Aeropuerto de Gibraltar

Gibraltar, Gibraltar

latitud: 36-09N, longitud: 005-21W, altitud: 5 m

Observación

El informe se hizo hace 41 minutos, a las 06:50 UTC
Viento 11 kt del oeste
Temperatura 22°C
Humedad 83%
Presión 1014 hPa
Visibilidad 10 km o más
Escasas nubes a una altura de 2000 ft

METAR: LXGB 140650Z 27011KT 9999 FEW020 22/19 Q1014 NOSIG RMK BLU BLU

Hora: 09:31 (07:31 UTC)

Pronóstico

El informe se hizo hace 3 horas y 22 minutos, a las 04:09 UTC
Pronóstico válido del 14 a las 06 UTC al 14 a las 15 UTC
Viento 12 kt del oeste
Visibilidad 10 km o más
Escasas nubes a una altura de 2000 ft
Probabilidad 30% :
Temporalmente
del 14 a las 10 UTC al 14 a las 15 UTC
Viento 15 kt del suroeste con ráfagas de 25 kt

TAF: LXGB 140409Z 1406/1415 26012KT 9999 FEW020 PROB30 TEMPO 1410/1415 22015G25KT 520002

Observaciones y pronósticos meteorológicos de más de 4000 aeropuertos (mensajes METAR y TAF).

Los puntos amarillos y rojos representan las estaciones disponibles.

Ponga el ratón en el punto deseado para ver el nombre de la estación.

Haga clic para ver las observaciones y los pronósticos meteorológicos.

Para cambiar el mapa : haga clic en los botones verdes con una cruz de color negro para hacer un zoom, en el botón verde con un guión para alejar o en las flechas verdes para mapas adyacentes.


METAR-TAF: